Terminal Aerodrome Forecast
Issued by NWS

Home | Current Version | Previous Version | Graphics & Text | Print | Product List | Glossary On
Versions: 1 2 3 4 5 6 7 8 9 10 11 12 13 14 15 16
000
FTUS43 KICT 200949 AAB
TAFSLN
TAF AMD
KSLN 200949Z 2010/2106 16014KT 6SM BR VCSH SCT005 BKN008
      TEMPO 2010/2013 4SM BR BKN005
     FM201400 20015G22KT P6SM SCT100 BKN250
     FM202200 34017G25KT P6SM SCT250=

USA.gov is the U.S. government's official web portal to all federal, state and local government web resources and services.